sensor_id;sensor_type;location;lat;lon;timestamp;P1;durP1;ratioP1;P2;durP2;ratioP2
69034;SDS011;56091;55.756;37.412;2023-04-06T00:03:00;11.50;;;5.03;;
69034;SDS011;56091;55.756;37.412;2023-04-06T00:08:01;11.23;;;5.22;;
69034;SDS011;56091;55.756;37.412;2023-04-06T00:13:02;10.73;;;5.07;;
69034;SDS011;56091;55.756;37.412;2023-04-06T00:18:03;10.73;;;5.47;;
69034;SDS011;56091;55.756;37.412;2023-04-06T00:23:04;11.27;;;5.30;;
69034;SDS011;56091;55.756;37.412;2023-04-06T00:28:05;13.70;;;5.33;;
69034;SDS011;56091;55.756;37.412;2023-04-06T00:33:06;14.57;;;5.57;;
69034;SDS011;56091;55.756;37.412;2023-04-06T00:38:06;12.30;;;5.63;;
69034;SDS011;56091;55.756;37.412;2023-04-06T00:43:07;12.85;;;5.70;;
69034;SDS011;56091;55.756;37.412;2023-04-06T00:48:11;14.03;;;5.90;;
69034;SDS011;56091;55.756;37.412;2023-04-06T00:53:12;12.20;;;6.05;;
69034;SDS011;56091;55.756;37.412;2023-04-06T00:58:12;12.32;;;6.00;;
69034;SDS011;56091;55.756;37.412;2023-04-06T01:03:22;14.40;;;6.03;;
69034;SDS011;56091;55.756;37.412;2023-04-06T01:08:23;16.08;;;6.18;;
69034;SDS011;56091;55.756;37.412;2023-04-06T01:13:29;12.47;;;6.03;;
69034;SDS011;56091;55.756;37.412;2023-04-06T01:18:34;12.85;;;5.93;;
69034;SDS011;56091;55.756;37.412;2023-04-06T01:23:57;13.00;;;6.23;;
69034;SDS011;56091;55.756;37.412;2023-04-06T01:29:05;15.38;;;6.32;;
69034;SDS011;56091;55.756;37.412;2023-04-06T01:34:06;12.33;;;5.90;;
69034;SDS011;56091;55.756;37.412;2023-04-06T01:39:07;13.45;;;6.10;;
69034;SDS011;56091;55.756;37.412;2023-04-06T01:44:11;15.53;;;6.97;;
69034;SDS011;56091;55.756;37.412;2023-04-06T01:49:13;14.35;;;6.95;;
69034;SDS011;56091;55.756;37.412;2023-04-06T01:54:15;14.60;;;6.47;;
69034;SDS011;56091;55.756;37.412;2023-04-06T01:59:32;14.38;;;7.07;;
69034;SDS011;56091;55.756;37.412;2023-04-06T02:04:36;17.13;;;6.77;;
69034;SDS011;56091;55.756;37.412;2023-04-06T02:09:47;14.55;;;6.60;;
69034;SDS011;56091;55.756;37.412;2023-04-06T02:14:56;13.80;;;6.63;;
69034;SDS011;56091;55.756;37.412;2023-04-06T02:19:57;12.85;;;6.72;;
69034;SDS011;56091;55.756;37.412;2023-04-06T02:24:58;14.80;;;6.67;;
69034;SDS011;56091;55.756;37.412;2023-04-06T02:30:00;18.05;;;6.70;;
69034;SDS011;56091;55.756;37.412;2023-04-06T02:35:01;13.13;;;6.23;;
69034;SDS011;56091;55.756;37.412;2023-04-06T02:40:04;13.50;;;6.47;;
69034;SDS011;56091;55.756;37.412;2023-04-06T02:45:06;13.70;;;6.30;;
69034;SDS011;56091;55.756;37.412;2023-04-06T02:50:14;13.88;;;6.47;;
69034;SDS011;56091;55.756;37.412;2023-04-06T02:55:23;14.50;;;6.20;;
69034;SDS011;56091;55.756;37.412;2023-04-06T03:00:24;13.82;;;5.65;;
69034;SDS011;56091;55.756;37.412;2023-04-06T03:05:25;13.20;;;6.03;;
69034;SDS011;56091;55.756;37.412;2023-04-06T03:10:26;13.35;;;6.20;;
69034;SDS011;56091;55.756;37.412;2023-04-06T03:15:27;13.00;;;5.77;;
69034;SDS011;56091;55.756;37.412;2023-04-06T03:20:37;13.95;;;5.55;;
69034;SDS011;56091;55.756;37.412;2023-04-06T03:25:38;12.47;;;5.60;;
69034;SDS011;56091;55.756;37.412;2023-04-06T03:30:42;12.15;;;5.45;;
69034;SDS011;56091;55.756;37.412;2023-04-06T03:35:43;15.37;;;6.07;;
69034;SDS011;56091;55.756;37.412;2023-04-06T03:40:44;11.93;;;5.55;;
69034;SDS011;56091;55.756;37.412;2023-04-06T03:45:45;11.57;;;5.30;;
69034;SDS011;56091;55.756;37.412;2023-04-06T03:50:48;14.40;;;5.68;;
69034;SDS011;56091;55.756;37.412;2023-04-06T03:55:49;13.07;;;5.33;;
69034;SDS011;56091;55.756;37.412;2023-04-06T04:00:50;12.13;;;5.70;;
69034;SDS011;56091;55.756;37.412;2023-04-06T04:05:51;11.03;;;5.50;;
69034;SDS011;56091;55.756;37.412;2023-04-06T04:10:53;13.90;;;5.47;;
69034;SDS011;56091;55.756;37.412;2023-04-06T04:15:54;14.00;;;6.10;;
69034;SDS011;56091;55.756;37.412;2023-04-06T04:20:55;11.93;;;5.38;;
69034;SDS011;56091;55.756;37.412;2023-04-06T04:25:57;15.40;;;5.10;;
69034;SDS011;56091;55.756;37.412;2023-04-06T04:30:58;12.40;;;5.57;;
69034;SDS011;56091;55.756;37.412;2023-04-06T04:35:59;11.93;;;5.60;;
69034;SDS011;56091;55.756;37.412;2023-04-06T04:41:05;15.10;;;5.80;;
69034;SDS011;56091;55.756;37.412;2023-04-06T04:46:09;17.67;;;5.75;;
69034;SDS011;56091;55.756;37.412;2023-04-06T04:51:16;15.00;;;5.55;;
69034;SDS011;56091;55.756;37.412;2023-04-06T04:56:37;23.00;;;7.95;;
69034;SDS011;56091;55.756;37.412;2023-04-06T05:01:52;15.05;;;7.15;;
69034;SDS011;56091;55.756;37.412;2023-04-06T05:07:06;16.95;;;5.97;;
69034;SDS011;56091;55.756;37.412;2023-04-06T05:12:09;13.27;;;5.65;;
69034;SDS011;56091;55.756;37.412;2023-04-06T05:17:19;11.43;;;5.30;;
69034;SDS011;56091;55.756;37.412;2023-04-06T05:22:21;12.82;;;5.55;;
69034;SDS011;56091;55.756;37.412;2023-04-06T05:27:30;13.40;;;5.47;;
69034;SDS011;56091;55.756;37.412;2023-04-06T05:32:33;18.10;;;5.70;;
69034;SDS011;56091;55.756;37.412;2023-04-06T05:37:38;14.75;;;5.70;;
69034;SDS011;56091;55.756;37.412;2023-04-06T05:42:40;16.52;;;5.47;;
69034;SDS011;56091;55.756;37.412;2023-04-06T05:47:44;16.70;;;5.57;;
69034;SDS011;56091;55.756;37.412;2023-04-06T05:52:55;16.50;;;5.65;;
69034;SDS011;56091;55.756;37.412;2023-04-06T05:57:58;14.70;;;5.15;;
69034;SDS011;56091;55.756;37.412;2023-04-06T06:03:00;17.25;;;5.43;;
69034;SDS011;56091;55.756;37.412;2023-04-06T06:08:03;10.23;;;4.80;;
69034;SDS011;56091;55.756;37.412;2023-04-06T06:13:04;12.60;;;5.10;;
69034;SDS011;56091;55.756;37.412;2023-04-06T06:18:08;11.55;;;5.60;;
69034;SDS011;56091;55.756;37.412;2023-04-06T06:23:09;13.23;;;5.10;;
69034;SDS011;56091;55.756;37.412;2023-04-06T06:28:11;16.55;;;5.65;;
69034;SDS011;56091;55.756;37.412;2023-04-06T06:33:13;12.75;;;5.38;;
69034;SDS011;56091;55.756;37.412;2023-04-06T06:38:17;17.90;;;6.07;;
69034;SDS011;56091;55.756;37.412;2023-04-06T06:43:18;16.23;;;5.57;;
69034;SDS011;56091;55.756;37.412;2023-04-06T06:48:31;10.23;;;4.30;;
69034;SDS011;56091;55.756;37.412;2023-04-06T06:53:32;15.40;;;5.57;;
69034;SDS011;56091;55.756;37.412;2023-04-06T06:58:33;18.15;;;5.90;;
69034;SDS011;56091;55.756;37.412;2023-04-06T07:03:34;25.57;;;6.20;;
69034;SDS011;56091;55.756;37.412;2023-04-06T07:08:35;13.00;;;5.70;;
69034;SDS011;56091;55.756;37.412;2023-04-06T07:13:37;12.90;;;5.57;;
69034;SDS011;56091;55.756;37.412;2023-04-06T07:18:37;18.17;;;5.43;;
69034;SDS011;56091;55.756;37.412;2023-04-06T07:23:38;11.83;;;5.20;;
69034;SDS011;56091;55.756;37.412;2023-04-06T07:28:41;20.23;;;5.70;;
69034;SDS011;56091;55.756;37.412;2023-04-06T07:33:43;13.60;;;6.13;;
69034;SDS011;56091;55.756;37.412;2023-04-06T07:38:44;16.45;;;5.25;;
69034;SDS011;56091;55.756;37.412;2023-04-06T07:43:47;9.90;;;4.50;;
69034;SDS011;56091;55.756;37.412;2023-04-06T07:48:48;14.60;;;5.00;;
69034;SDS011;56091;55.756;37.412;2023-04-06T07:53:50;14.57;;;5.00;;
69034;SDS011;56091;55.756;37.412;2023-04-06T07:58:51;12.68;;;5.10;;
69034;SDS011;56091;55.756;37.412;2023-04-06T08:03:52;14.43;;;4.93;;
69034;SDS011;56091;55.756;37.412;2023-04-06T08:08:55;12.25;;;4.40;;
69034;SDS011;56091;55.756;37.412;2023-04-06T08:13:57;14.47;;;4.50;;
69034;SDS011;56091;55.756;37.412;2023-04-06T08:18:58;14.20;;;4.55;;
69034;SDS011;56091;55.756;37.412;2023-04-06T08:24:02;12.57;;;3.90;;
69034;SDS011;56091;55.756;37.412;2023-04-06T08:29:03;21.98;;;4.22;;
69034;SDS011;56091;55.756;37.412;2023-04-06T08:34:07;12.93;;;3.97;;
69034;SDS011;56091;55.756;37.412;2023-04-06T08:39:08;14.05;;;4.05;;
69034;SDS011;56091;55.756;37.412;2023-04-06T08:44:11;19.40;;;4.90;;
69034;SDS011;56091;55.756;37.412;2023-04-06T08:49:15;10.98;;;3.65;;
69034;SDS011;56091;55.756;37.412;2023-04-06T08:54:16;12.73;;;3.10;;
69034;SDS011;56091;55.756;37.412;2023-04-06T08:59:17;13.02;;;3.33;;
69034;SDS011;56091;55.756;37.412;2023-04-06T09:04:18;8.77;;;3.73;;
69034;SDS011;56091;55.756;37.412;2023-04-06T09:09:19;7.63;;;2.90;;
69034;SDS011;56091;55.756;37.412;2023-04-06T09:14:36;12.63;;;3.10;;
69034;SDS011;56091;55.756;37.412;2023-04-06T09:19:47;11.27;;;3.30;;
69034;SDS011;56091;55.756;37.412;2023-04-06T09:24:49;11.50;;;3.10;;
69034;SDS011;56091;55.756;37.412;2023-04-06T09:29:51;14.32;;;3.10;;
69034;SDS011;56091;55.756;37.412;2023-04-06T09:35:07;10.07;;;3.27;;
69034;SDS011;56091;55.756;37.412;2023-04-06T09:40:09;11.70;;;2.95;;
69034;SDS011;56091;55.756;37.412;2023-04-06T09:45:11;11.77;;;3.00;;
69034;SDS011;56091;55.756;37.412;2023-04-06T09:50:14;10.73;;;2.88;;
69034;SDS011;56091;55.756;37.412;2023-04-06T10:00:25;9.30;;;2.67;;
69034;SDS011;56091;55.756;37.412;2023-04-06T10:10:40;11.65;;;2.90;;
69034;SDS011;56091;55.756;37.412;2023-04-06T10:15:42;12.47;;;3.00;;
69034;SDS011;56091;55.756;37.412;2023-04-06T10:20:49;10.57;;;2.75;;
69034;SDS011;56091;55.756;37.412;2023-04-06T10:25:54;16.73;;;3.13;;
69034;SDS011;56091;55.756;37.412;2023-04-06T10:30:59;20.33;;;3.33;;
69034;SDS011;56091;55.756;37.412;2023-04-06T10:36:22;12.53;;;2.97;;
69034;SDS011;56091;55.756;37.412;2023-04-06T10:41:23;7.88;;;2.90;;
69034;SDS011;56091;55.756;37.412;2023-04-06T10:46:32;20.93;;;3.07;;
69034;SDS011;56091;55.756;37.412;2023-04-06T10:51:37;12.27;;;3.17;;
69034;SDS011;56091;55.756;37.412;2023-04-06T10:56:39;10.23;;;3.37;;
69034;SDS011;56091;55.756;37.412;2023-04-06T11:01:39;9.65;;;3.05;;
69034;SDS011;56091;55.756;37.412;2023-04-06T11:06:49;9.47;;;2.97;;
69034;SDS011;56091;55.756;37.412;2023-04-06T11:11:50;14.35;;;3.03;;
69034;SDS011;56091;55.756;37.412;2023-04-06T11:16:53;9.03;;;3.00;;
69034;SDS011;56091;55.756;37.412;2023-04-06T11:22:05;10.38;;;3.20;;
69034;SDS011;56091;55.756;37.412;2023-04-06T11:27:07;13.00;;;2.90;;
69034;SDS011;56091;55.756;37.412;2023-04-06T11:32:11;13.30;;;2.97;;
69034;SDS011;56091;55.756;37.412;2023-04-06T11:37:21;10.97;;;2.80;;
69034;SDS011;56091;55.756;37.412;2023-04-06T11:42:28;11.45;;;3.30;;
69034;SDS011;56091;55.756;37.412;2023-04-06T11:47:32;12.67;;;3.03;;
69034;SDS011;56091;55.756;37.412;2023-04-06T11:52:35;9.20;;;2.70;;
69034;SDS011;56091;55.756;37.412;2023-04-06T11:57:36;5.60;;;2.60;;
69034;SDS011;56091;55.756;37.412;2023-04-06T12:02:37;8.02;;;2.70;;
69034;SDS011;56091;55.756;37.412;2023-04-06T12:07:39;10.33;;;2.47;;
69034;SDS011;56091;55.756;37.412;2023-04-06T12:12:42;9.93;;;2.70;;
69034;SDS011;56091;55.756;37.412;2023-04-06T12:17:43;16.43;;;3.30;;
69034;SDS011;56091;55.756;37.412;2023-04-06T12:22:44;10.30;;;2.63;;
69034;SDS011;56091;55.756;37.412;2023-04-06T12:27:45;8.83;;;2.73;;
69034;SDS011;56091;55.756;37.412;2023-04-06T12:32:46;10.38;;;2.85;;
69034;SDS011;56091;55.756;37.412;2023-04-06T12:37:47;11.30;;;2.50;;
69034;SDS011;56091;55.756;37.412;2023-04-06T12:42:48;8.52;;;2.75;;
69034;SDS011;56091;55.756;37.412;2023-04-06T12:47:49;11.23;;;2.90;;
69034;SDS011;56091;55.756;37.412;2023-04-06T12:52:51;7.03;;;2.47;;
69034;SDS011;56091;55.756;37.412;2023-04-06T12:57:51;12.07;;;2.70;;
69034;SDS011;56091;55.756;37.412;2023-04-06T13:02:52;8.67;;;2.80;;
69034;SDS011;56091;55.756;37.412;2023-04-06T13:07:53;9.32;;;2.53;;
69034;SDS011;56091;55.756;37.412;2023-04-06T13:12:54;12.50;;;2.90;;
69034;SDS011;56091;55.756;37.412;2023-04-06T13:17:55;12.25;;;2.78;;
69034;SDS011;56091;55.756;37.412;2023-04-06T13:22:55;14.33;;;2.63;;
69034;SDS011;56091;55.756;37.412;2023-04-06T13:27:56;8.83;;;2.50;;
69034;SDS011;56091;55.756;37.412;2023-04-06T13:32:57;9.17;;;2.73;;
69034;SDS011;56091;55.756;37.412;2023-04-06T13:37:58;11.80;;;2.60;;
69034;SDS011;56091;55.756;37.412;2023-04-06T13:42:59;8.33;;;2.60;;
69034;SDS011;56091;55.756;37.412;2023-04-06T13:48:00;7.93;;;2.20;;
69034;SDS011;56091;55.756;37.412;2023-04-06T13:53:00;8.95;;;2.33;;
69034;SDS011;56091;55.756;37.412;2023-04-06T13:58:02;9.47;;;2.53;;
69034;SDS011;56091;55.756;37.412;2023-04-06T14:03:03;7.03;;;2.45;;
69034;SDS011;56091;55.756;37.412;2023-04-06T14:08:04;9.73;;;3.07;;
69034;SDS011;56091;55.756;37.412;2023-04-06T14:13:06;7.97;;;2.45;;
69034;SDS011;56091;55.756;37.412;2023-04-06T14:18:10;14.80;;;4.10;;
69034;SDS011;56091;55.756;37.412;2023-04-06T14:23:10;9.10;;;4.18;;
69034;SDS011;56091;55.756;37.412;2023-04-06T14:28:12;7.17;;;4.47;;
69034;SDS011;56091;55.756;37.412;2023-04-06T14:33:12;13.87;;;3.90;;
69034;SDS011;56091;55.756;37.412;2023-04-06T14:38:13;9.43;;;3.90;;
69034;SDS011;56091;55.756;37.412;2023-04-06T14:43:14;7.60;;;3.50;;
69034;SDS011;56091;55.756;37.412;2023-04-06T14:48:15;7.22;;;4.00;;
69034;SDS011;56091;55.756;37.412;2023-04-06T14:53:17;8.97;;;3.90;;
69034;SDS011;56091;55.756;37.412;2023-04-06T14:58:18;10.25;;;4.22;;
69034;SDS011;56091;55.756;37.412;2023-04-06T15:03:20;6.70;;;3.40;;
69034;SDS011;56091;55.756;37.412;2023-04-06T15:08:26;6.15;;;3.53;;
69034;SDS011;56091;55.756;37.412;2023-04-06T15:13:27;10.27;;;3.00;;
69034;SDS011;56091;55.756;37.412;2023-04-06T15:18:28;6.53;;;3.28;;
69034;SDS011;56091;55.756;37.412;2023-04-06T15:23:29;6.60;;;2.83;;
69034;SDS011;56091;55.756;37.412;2023-04-06T15:28:30;7.50;;;2.92;;
69034;SDS011;56091;55.756;37.412;2023-04-06T15:33:31;8.67;;;3.00;;
69034;SDS011;56091;55.756;37.412;2023-04-06T15:38:32;12.65;;;3.13;;
69034;SDS011;56091;55.756;37.412;2023-04-06T15:43:33;6.57;;;2.10;;
69034;SDS011;56091;55.756;37.412;2023-04-06T15:48:34;5.85;;;1.52;;
69034;SDS011;56091;55.756;37.412;2023-04-06T15:53:35;5.60;;;1.50;;
69034;SDS011;56091;55.756;37.412;2023-04-06T15:58:36;5.95;;;1.50;;
69034;SDS011;56091;55.756;37.412;2023-04-06T16:03:37;7.27;;;1.80;;
69034;SDS011;56091;55.756;37.412;2023-04-06T16:08:38;6.68;;;1.38;;
69034;SDS011;56091;55.756;37.412;2023-04-06T16:13:41;13.93;;;1.53;;
69034;SDS011;56091;55.756;37.412;2023-04-06T16:18:41;7.23;;;1.60;;
69034;SDS011;56091;55.756;37.412;2023-04-06T16:23:42;5.80;;;1.42;;
69034;SDS011;56091;55.756;37.412;2023-04-06T16:28:45;7.97;;;1.70;;
69034;SDS011;56091;55.756;37.412;2023-04-06T16:33:47;9.02;;;2.17;;
69034;SDS011;56091;55.756;37.412;2023-04-06T16:38:48;8.47;;;1.70;;
69034;SDS011;56091;55.756;37.412;2023-04-06T16:43:49;9.27;;;1.83;;
69034;SDS011;56091;55.756;37.412;2023-04-06T16:48:50;6.73;;;2.00;;
69034;SDS011;56091;55.756;37.412;2023-04-06T16:53:51;8.00;;;1.70;;
69034;SDS011;56091;55.756;37.412;2023-04-06T16:58:52;8.98;;;1.75;;
69034;SDS011;56091;55.756;37.412;2023-04-06T17:03:53;7.13;;;1.53;;
69034;SDS011;56091;55.756;37.412;2023-04-06T17:08:55;8.20;;;1.98;;
69034;SDS011;56091;55.756;37.412;2023-04-06T17:13:56;8.77;;;1.87;;
69034;SDS011;56091;55.756;37.412;2023-04-06T17:18:57;8.77;;;1.60;;
69034;SDS011;56091;55.756;37.412;2023-04-06T17:24:00;10.63;;;1.67;;
69034;SDS011;56091;55.756;37.412;2023-04-06T17:29:01;6.03;;;1.77;;
69034;SDS011;56091;55.756;37.412;2023-04-06T17:34:02;7.10;;;1.60;;
69034;SDS011;56091;55.756;37.412;2023-04-06T17:39:03;6.63;;;1.73;;
69034;SDS011;56091;55.756;37.412;2023-04-06T17:44:04;9.82;;;1.92;;
69034;SDS011;56091;55.756;37.412;2023-04-06T17:49:04;11.40;;;2.33;;
69034;SDS011;56091;55.756;37.412;2023-04-06T17:54:07;14.63;;;2.30;;
69034;SDS011;56091;55.756;37.412;2023-04-06T17:59:08;6.33;;;2.00;;
69034;SDS011;56091;55.756;37.412;2023-04-06T18:04:10;8.38;;;1.90;;
69034;SDS011;56091;55.756;37.412;2023-04-06T18:09:11;11.23;;;1.70;;
69034;SDS011;56091;55.756;37.412;2023-04-06T18:14:12;6.23;;;2.20;;
69034;SDS011;56091;55.756;37.412;2023-04-06T18:19:16;6.47;;;1.90;;
69034;SDS011;56091;55.756;37.412;2023-04-06T18:24:17;7.73;;;1.70;;
69034;SDS011;56091;55.756;37.412;2023-04-06T18:29:17;7.13;;;1.73;;
69034;SDS011;56091;55.756;37.412;2023-04-06T18:34:19;4.03;;;1.50;;
69034;SDS011;56091;55.756;37.412;2023-04-06T18:39:21;8.82;;;1.85;;
69034;SDS011;56091;55.756;37.412;2023-04-06T18:44:22;6.83;;;1.70;;
69034;SDS011;56091;55.756;37.412;2023-04-06T18:49:25;10.35;;;1.75;;
69034;SDS011;56091;55.756;37.412;2023-04-06T18:54:26;6.17;;;1.80;;
69034;SDS011;56091;55.756;37.412;2023-04-06T18:59:26;8.00;;;2.00;;
69034;SDS011;56091;55.756;37.412;2023-04-06T19:04:29;5.20;;;1.40;;
69034;SDS011;56091;55.756;37.412;2023-04-06T19:09:33;5.80;;;1.70;;
69034;SDS011;56091;55.756;37.412;2023-04-06T19:14:34;6.97;;;2.10;;
69034;SDS011;56091;55.756;37.412;2023-04-06T19:19:35;5.88;;;1.88;;
69034;SDS011;56091;55.756;37.412;2023-04-06T19:24:37;9.00;;;1.70;;
69034;SDS011;56091;55.756;37.412;2023-04-06T19:29:41;7.25;;;1.60;;
69034;SDS011;56091;55.756;37.412;2023-04-06T19:34:42;6.97;;;1.60;;
69034;SDS011;56091;55.756;37.412;2023-04-06T19:39:43;7.47;;;1.90;;
69034;SDS011;56091;55.756;37.412;2023-04-06T19:44:45;5.47;;;1.70;;
69034;SDS011;56091;55.756;37.412;2023-04-06T19:49:46;7.32;;;1.55;;
69034;SDS011;56091;55.756;37.412;2023-04-06T19:54:47;6.00;;;1.50;;
69034;SDS011;56091;55.756;37.412;2023-04-06T19:59:48;9.75;;;1.90;;
69034;SDS011;56091;55.756;37.412;2023-04-06T20:04:48;11.40;;;1.60;;
69034;SDS011;56091;55.756;37.412;2023-04-06T20:09:49;6.07;;;1.70;;
69034;SDS011;56091;55.756;37.412;2023-04-06T20:14:50;8.80;;;1.63;;
69034;SDS011;56091;55.756;37.412;2023-04-06T20:19:54;6.07;;;1.60;;
69034;SDS011;56091;55.756;37.412;2023-04-06T20:25:05;9.55;;;1.83;;
69034;SDS011;56091;55.756;37.412;2023-04-06T20:30:10;6.47;;;1.63;;
69034;SDS011;56091;55.756;37.412;2023-04-06T20:35:16;6.32;;;1.52;;
69034;SDS011;56091;55.756;37.412;2023-04-06T20:40:17;6.87;;;1.80;;
69034;SDS011;56091;55.756;37.412;2023-04-06T20:45:19;5.63;;;1.90;;
69034;SDS011;56091;55.756;37.412;2023-04-06T20:50:20;6.27;;;1.43;;
69034;SDS011;56091;55.756;37.412;2023-04-06T20:55:21;7.63;;;1.65;;
69034;SDS011;56091;55.756;37.412;2023-04-06T21:00:22;7.80;;;1.70;;
69034;SDS011;56091;55.756;37.412;2023-04-06T21:05:23;5.43;;;1.60;;
69034;SDS011;56091;55.756;37.412;2023-04-06T21:10:26;8.40;;;1.63;;
69034;SDS011;56091;55.756;37.412;2023-04-06T21:15:27;5.63;;;1.85;;
69034;SDS011;56091;55.756;37.412;2023-04-06T21:20:28;5.50;;;1.43;;
69034;SDS011;56091;55.756;37.412;2023-04-06T21:25:29;7.10;;;1.70;;
69034;SDS011;56091;55.756;37.412;2023-04-06T21:30:30;10.30;;;1.80;;
69034;SDS011;56091;55.756;37.412;2023-04-06T21:35:39;8.10;;;1.80;;
69034;SDS011;56091;55.756;37.412;2023-04-06T21:40:40;9.13;;;1.52;;
69034;SDS011;56091;55.756;37.412;2023-04-06T21:45:47;5.87;;;1.70;;
69034;SDS011;56091;55.756;37.412;2023-04-06T21:50:51;5.57;;;1.50;;
69034;SDS011;56091;55.756;37.412;2023-04-06T21:55:52;6.27;;;1.50;;
69034;SDS011;56091;55.756;37.412;2023-04-06T22:00:52;8.65;;;1.80;;
69034;SDS011;56091;55.756;37.412;2023-04-06T22:05:54;7.60;;;1.63;;
69034;SDS011;56091;55.756;37.412;2023-04-06T22:10:55;7.93;;;1.80;;
69034;SDS011;56091;55.756;37.412;2023-04-06T22:15:55;8.27;;;1.70;;
69034;SDS011;56091;55.756;37.412;2023-04-06T22:20:57;4.57;;;1.60;;
69034;SDS011;56091;55.756;37.412;2023-04-06T22:25:58;5.55;;;1.70;;
69034;SDS011;56091;55.756;37.412;2023-04-06T22:30:59;6.10;;;1.70;;
69034;SDS011;56091;55.756;37.412;2023-04-06T22:36:00;8.50;;;1.90;;
69034;SDS011;56091;55.756;37.412;2023-04-06T22:41:01;5.77;;;1.90;;
69034;SDS011;56091;55.756;37.412;2023-04-06T22:46:02;7.38;;;1.80;;
69034;SDS011;56091;55.756;37.412;2023-04-06T22:51:03;4.70;;;1.60;;
69034;SDS011;56091;55.756;37.412;2023-04-06T22:56:07;5.47;;;1.67;;
69034;SDS011;56091;55.756;37.412;2023-04-06T23:01:08;4.60;;;1.83;;
69034;SDS011;56091;55.756;37.412;2023-04-06T23:06:12;10.88;;;1.90;;
69034;SDS011;56091;55.756;37.412;2023-04-06T23:11:15;5.07;;;1.70;;
69034;SDS011;56091;55.756;37.412;2023-04-06T23:16:16;4.85;;;1.70;;
69034;SDS011;56091;55.756;37.412;2023-04-06T23:21:17;4.97;;;1.60;;
69034;SDS011;56091;55.756;37.412;2023-04-06T23:26:18;4.80;;;1.63;;
69034;SDS011;56091;55.756;37.412;2023-04-06T23:31:19;5.07;;;1.60;;
69034;SDS011;56091;55.756;37.412;2023-04-06T23:36:19;5.83;;;1.70;;
69034;SDS011;56091;55.756;37.412;2023-04-06T23:41:20;5.57;;;1.83;;
69034;SDS011;56091;55.756;37.412;2023-04-06T23:46:21;8.33;;;1.87;;
69034;SDS011;56091;55.756;37.412;2023-04-06T23:51:22;9.82;;;1.80;;
69034;SDS011;56091;55.756;37.412;2023-04-06T23:56:23;6.32;;;1.90;;
